Time;durP1;ratioP1;P1;durP2;ratioP2;P2;SDS_P1;SDS_P2;PMS_P1;PMS_P2;Temp;Humidity;BMP_temperature;BMP_pressure;BME280_temperature;BME280_humidity;BME280_pressure;Samples;Min_cycle;Max_cycle;Signal;HPM_P1;HPM_P2
2022/03/12 00:01:08;;;;;;;34.08;17.75;;;11.30;73.60;;;;;;5010002;28;20026;-71
2022/03/12 00:03:34;;;;;;;31.00;16.77;;;11.30;73.20;;;;;;5010327;28;20034;-71
2022/03/12 00:06:00;;;;;;;32.28;16.85;;;11.30;73.10;;;;;;4992397;28;20021;-71
2022/03/12 00:08:44;;;;;;;32.15;16.88;;;11.30;72.80;;;;;;5009883;28;20072;-71
2022/03/12 00:11:12;;;;;;;33.72;17.45;;;11.30;72.90;;;;;;5010022;28;20030;-72
2022/03/12 00:13:38;;;;;;;28.83;16.98;;;11.30;72.80;;;;;;5010300;28;20045;-71
2022/03/12 00:16:08;;;;;;;31.50;17.67;;;11.30;72.90;;;;;;5009991;28;20339;-71
2022/03/12 00:18:34;;;;;;;31.83;16.98;;;11.30;73.10;;;;;;5010291;28;20060;-71
2022/03/12 00:21:02;;;;;;;32.55;17.63;;;11.30;73.30;;;;;;4992188;28;20045;-71
2022/03/12 00:23:29;;;;;;;29.50;16.88;;;11.20;73.60;;;;;;5010097;28;20042;-71
2022/03/12 00:25:55;;;;;;;30.55;16.65;;;11.20;74.20;;;;;;4991899;28;20030;-71
2022/03/12 00:28:21;;;;;;;33.13;17.48;;;11.20;76.00;;;;;;4992056;28;20029;-71
2022/03/12 00:30:50;;;;;;;32.38;17.20;;;11.20;78.30;;;;;;5010005;28;20045;-71
2022/03/12 00:33:21;;;;;;;27.30;17.13;;;11.20;81.40;;;;;;5009713;28;20021;-71
2022/03/12 00:35:51;;;;;;;32.88;16.85;;;11.20;82.70;;;;;;5009689;28;20413;-71
2022/03/12 00:38:18;;;;;;;29.20;17.05;;;11.10;84.20;;;;;;5009878;28;20041;-71
2022/03/12 00:40:44;;;;;;;28.60;17.00;;;11.10;86.20;;;;;;5009442;28;20074;-71
2022/03/12 00:43:11;;;;;;;29.45;17.67;;;11.10;86.80;;;;;;5009637;28;20543;-71
2022/03/12 00:45:37;;;;;;;33.35;18.42;;;11.00;87.20;;;;;;5009224;28;20485;-71
2022/03/12 00:48:03;;;;;;;33.00;17.40;;;11.00;87.70;;;;;;5009225;28;20041;-71
2022/03/12 00:50:29;;;;;;;30.08;17.95;;;10.90;88.30;;;;;;5009175;28;20041;-71
2022/03/12 00:52:54;;;;;;;31.83;18.35;;;10.90;89.30;;;;;;5009404;28;20038;-71
2022/03/12 00:55:20;;;;;;;32.97;18.15;;;10.80;89.80;;;;;;5009173;28;20366;-72
2022/03/12 00:57:46;;;;;;;32.45;19.23;;;10.80;90.10;;;;;;5009231;28;20026;-72
2022/03/12 01:00:17;;;;;;;32.17;18.58;;;10.70;90.20;;;;;;5008953;28;20025;-71
2022/03/12 01:02:43;;;;;;;28.75;17.00;;;10.70;90.50;;;;;;5009143;28;20347;-72
2022/03/12 01:05:10;;;;;;;29.45;18.08;;;10.70;90.70;;;;;;5009145;28;20453;-71
2022/03/12 01:07:36;;;;;;;29.75;17.95;;;10.70;91.00;;;;;;5009160;28;20386;-72
2022/03/12 01:10:02;;;;;;;31.27;18.63;;;10.60;91.40;;;;;;5009100;28;20084;-72
2022/03/12 01:12:28;;;;;;;31.88;19.15;;;10.60;92.00;;;;;;5009079;28;20037;-72
2022/03/12 01:14:53;;;;;;;35.15;19.65;;;10.60;92.60;;;;;;5008975;28;20045;-72
2022/03/12 01:17:19;;;;;;;34.20;19.48;;;10.50;93.00;;;;;;5008580;28;20078;-72
2022/03/12 01:19:45;;;;;;;34.22;19.10;;;10.50;93.60;;;;;;5009361;28;20351;-72
2022/03/12 01:22:20;;;;;;;33.03;18.55;;;10.40;93.90;;;;;;5008940;28;20156;-72
2022/03/12 01:24:47;;;;;;;36.33;18.60;;;10.40;94.30;;;;;;5009198;28;20037;-71
2022/03/12 01:27:15;;;;;;;30.92;18.73;;;10.40;94.70;;;;;;4991159;28;20470;-72
2022/03/12 01:29:41;;;;;;;31.25;18.35;;;10.40;95.10;;;;;;5009335;28;20123;-72
2022/03/12 01:32:08;;;;;;;29.55;17.77;;;10.30;95.60;;;;;;5009107;28;20030;-73
2022/03/12 01:34:33;;;;;;;33.53;18.67;;;10.30;96.30;;;;;;5008925;28;20433;-73
2022/03/12 01:36:59;;;;;;;28.00;17.63;;;10.30;96.60;;;;;;5008723;28;20030;-72
2022/03/12 01:39:24;;;;;;;31.13;17.65;;;10.30;97.10;;;;;;5008798;28;20026;-72
2022/03/12 01:41:52;;;;;;;31.63;17.70;;;10.30;97.80;;;;;;5008683;28;20041;-72
2022/03/12 01:44:18;;;;;;;28.65;17.40;;;10.30;98.50;;;;;;5008688;28;20037;-72
2022/03/12 01:46:45;;;;;;;29.80;17.42;;;10.30;99.20;;;;;;5008656;28;20049;-72
2022/03/12 01:49:15;;;;;;;30.05;17.17;;;10.30;99.90;;;;;;5008744;28;20030;-72
2022/03/12 01:51:43;;;;;;;31.27;17.10;;;10.30;99.90;;;;;;5008797;28;20494;-72
2022/03/12 01:54:09;;;;;;;25.45;15.93;;;10.30;99.90;;;;;;4991434;28;20204;-72
2022/03/12 01:56:35;;;;;;;28.30;16.25;;;10.30;99.90;;;;;;5008337;28;20029;-72
2022/03/12 01:59:01;;;;;;;28.38;15.75;;;10.30;99.90;;;;;;5008946;28;20386;-72
2022/03/12 02:01:29;;;;;;;26.50;15.60;;;10.30;99.90;;;;;;5008510;28;20018;-73
2022/03/12 02:03:59;;;;;;;26.65;16.42;;;10.30;99.90;;;;;;5008517;28;20026;-72
2022/03/12 02:06:25;;;;;;;25.48;15.77;;;10.30;99.90;;;;;;5006837;28;20053;-72
2022/03/12 02:08:57;;;;;;;26.45;15.93;;;10.30;99.90;;;;;;5008083;28;20124;-73
2022/03/12 02:11:27;;;;;;;25.58;14.85;;;10.30;99.90;;;;;;5010424;28;20096;-73
2022/03/12 02:14:02;;;;;;;25.13;15.02;;;10.40;99.90;;;;;;5008552;28;20054;-73
2022/03/12 02:16:29;;;;;;;26.05;14.77;;;10.40;99.90;;;;;;5009687;28;20029;-73
2022/03/12 02:18:54;;;;;;;24.52;14.80;;;10.40;99.90;;;;;;5011635;28;20501;-71
2022/03/12 02:21:34;;;;;;;23.08;13.68;;;10.40;99.90;;;;;;5011890;28;20027;-71
2022/03/12 02:24:01;;;;;;;21.55;13.07;;;10.40;99.90;;;;;;5012393;28;20399;-71
2022/03/12 02:26:27;;;;;;;18.10;11.65;;;10.50;99.90;;;;;;5012090;28;20113;-71
2022/03/12 02:28:52;;;;;;;18.33;11.50;;;10.50;99.90;;;;;;5012132;28;20501;-71
2022/03/12 02:31:21;;;;;;;18.55;11.10;;;10.50;99.90;;;;;;5011857;28;20484;-71
2022/03/12 02:33:46;;;;;;;18.05;11.20;;;10.60;99.90;;;;;;5011681;28;20014;-72
2022/03/12 02:36:15;;;;;;;20.15;11.35;;;10.60;99.90;;;;;;4993903;28;20018;-71
2022/03/12 02:38:41;;;;;;;17.10;10.90;;;10.70;99.90;;;;;;5011804;28;20069;-72
2022/03/12 02:41:10;;;;;;;14.63;9.57;;;10.70;99.90;;;;;;5012070;28;20176;-72
2022/03/12 02:43:37;;;;;;;14.50;9.63;;;10.70;99.90;;;;;;4993718;28;20049;-72
2022/03/12 02:46:02;;;;;;;15.70;9.50;;;10.70;99.90;;;;;;5011625;28;20022;-72
2022/03/12 02:48:28;;;;;;;15.85;9.35;;;10.80;99.90;;;;;;5011483;28;20358;-72
2022/03/12 02:50:54;;;;;;;13.65;8.07;;;10.80;99.90;;;;;;5011344;28;20033;-72
2022/03/12 02:53:20;;;;;;;14.05;8.68;;;10.80;99.90;;;;;;5011591;28;20351;-72
2022/03/12 02:55:46;;;;;;;13.30;8.15;;;10.80;99.90;;;;;;5011414;28;20032;-71
2022/03/12 02:58:13;;;;;;;11.95;7.95;;;10.90;99.90;;;;;;5011162;28;20084;-72
2022/03/12 03:00:39;;;;;;;12.50;7.72;;;10.90;99.90;;;;;;5011622;28;20084;-72
2022/03/12 03:03:06;;;;;;;11.70;7.90;;;10.90;99.90;;;;;;5011160;28;20422;-72
2022/03/12 03:05:47;;;;;;;11.60;7.85;;;10.90;99.90;;;;;;5011274;28;20119;-72
2022/03/12 03:08:22;;;;;;;12.35;7.47;;;10.90;99.90;;;;;;5011218;28;20029;-72
2022/03/12 03:10:52;;;;;;;;;;;10.90;99.90;;;;;;4993921;28;20228;-72
2022/03/12 03:13:18;;;;;;;11.77;7.45;;;10.90;99.90;;;;;;5011346;28;19905;-71
2022/03/12 03:15:49;;;;;;;11.48;7.05;;;10.90;99.90;;;;;;5010979;28;20018;-72
2022/03/12 03:18:17;;;;;;;10.52;7.43;;;10.90;99.90;;;;;;5011189;28;20042;-72
2022/03/12 03:20:44;;;;;;;12.00;6.82;;;10.90;99.90;;;;;;5011039;28;20026;-72
2022/03/12 03:23:11;;;;;;;11.80;6.22;;;10.90;99.90;;;;;;5010473;28;20030;-72
2022/03/12 03:25:37;;;;;;;11.75;6.85;;;10.90;99.90;;;;;;5010943;28;20061;-71
2022/03/12 03:28:05;;;;;;;9.00;6.70;;;11.00;99.90;;;;;;5011035;28;20415;-72
2022/03/12 03:30:34;;;;;;;11.68;6.13;;;11.00;99.90;;;;;;5010559;28;20026;-71
2022/03/12 03:33:01;;;;;;;9.60;6.63;;;11.00;99.90;;;;;;5009876;28;20060;-72
2022/03/12 03:35:26;;;;;;;9.60;6.20;;;11.00;99.90;;;;;;5010943;28;20022;-72
2022/03/12 03:37:52;;;;;;;8.27;5.93;;;10.90;99.90;;;;;;5010426;28;20387;-72
2022/03/12 03:40:18;;;;;;;10.27;6.20;;;10.90;99.90;;;;;;5010672;28;20030;-72
2022/03/12 03:42:43;;;;;;;8.10;5.75;;;10.90;99.90;;;;;;5010417;28;20232;-72
2022/03/12 03:45:09;;;;;;;9.68;6.22;;;10.90;99.90;;;;;;4993005;28;20548;-72
2022/03/12 03:47:34;;;;;;;11.57;6.18;;;10.90;99.90;;;;;;4992880;28;20021;-71
2022/03/12 03:50:00;;;;;;;8.52;5.93;;;10.90;99.90;;;;;;5010482;28;20038;-72
2022/03/12 03:52:26;;;;;;;8.07;5.55;;;10.90;99.90;;;;;;5010641;28;20084;-72
2022/03/12 03:54:52;;;;;;;8.80;5.80;;;10.80;99.90;;;;;;5010371;28;20029;-72
2022/03/12 03:57:19;;;;;;;8.38;5.85;;;10.90;99.90;;;;;;5010347;28;20032;-71
2022/03/12 03:59:44;;;;;;;8.23;5.82;;;10.80;99.90;;;;;;5010284;28;20203;-72
2022/03/12 04:02:10;;;;;;;9.65;5.50;;;10.80;99.90;;;;;;5010153;28;20122;-72
2022/03/12 04:04:36;;;;;;;8.15;5.45;;;10.80;99.90;;;;;;5010563;28;20037;-72
2022/03/12 04:07:04;;;;;;;7.90;5.88;;;10.70;99.90;;;;;;5010819;28;20022;-72
2022/03/12 04:09:30;;;;;;;7.40;5.68;;;10.70;99.90;;;;;;5010162;28;20121;-72
2022/03/12 04:11:56;;;;;;;8.57;5.78;;;10.70;99.90;;;;;;5010046;28;20088;-72
2022/03/12 04:14:21;;;;;;;8.45;5.93;;;10.70;99.90;;;;;;4992122;28;20060;-72
2022/03/12 04:16:47;;;;;;;8.23;5.63;;;10.70;99.90;;;;;;5010074;28;20330;-72
2022/03/12 04:19:14;;;;;;;8.23;5.65;;;10.70;99.90;;;;;;5009898;28;20038;-72
2022/03/12 04:21:40;;;;;;;9.70;6.00;;;10.70;99.90;;;;;;5010065;28;20056;-72
2022/03/12 04:24:06;;;;;;;8.18;5.60;;;10.60;99.90;;;;;;5010072;28;20529;-72
2022/03/12 04:26:35;;;;;;;9.50;5.95;;;10.70;99.90;;;;;;5009760;28;20022;-72
2022/03/12 04:29:03;;;;;;;8.68;5.57;;;10.60;99.90;;;;;;5009945;28;20120;-71
2022/03/12 04:31:30;;;;;;;7.82;5.47;;;10.70;99.90;;;;;;5009943;28;20088;-72
2022/03/12 04:33:55;;;;;;;10.38;6.38;;;10.60;99.90;;;;;;5009143;28;20026;-72
2022/03/12 04:36:21;;;;;;;8.07;5.35;;;10.60;99.90;;;;;;4992025;28;20473;-72
2022/03/12 04:38:48;;;;;;;9.55;5.63;;;10.50;99.90;;;;;;5009421;28;20467;-72
2022/03/12 04:41:16;;;;;;;10.18;5.90;;;10.50;99.90;;;;;;5009673;28;20026;-72
2022/03/12 04:43:42;;;;;;;7.45;5.60;;;10.40;99.90;;;;;;5009380;28;20026;-72
2022/03/12 04:46:08;;;;;;;8.23;5.50;;;10.40;99.90;;;;;;5009843;28;20052;-71
2022/03/12 04:48:33;;;;;;;11.93;6.00;;;10.30;99.90;;;;;;5009636;28;20101;-72
2022/03/12 04:50:59;;;;;;;8.32;5.63;;;10.30;99.90;;;;;;5009645;28;20072;-72
2022/03/12 04:53:26;;;;;;;9.85;5.78;;;10.30;99.90;;;;;;5009876;28;20026;-72
2022/03/12 04:55:52;;;;;;;8.15;5.75;;;10.20;99.90;;;;;;5009067;28;20022;-72
2022/03/12 04:58:19;;;;;;;8.30;5.28;;;10.20;99.90;;;;;;5009550;28;20512;-72
2022/03/12 05:00:46;;;;;;;8.57;5.40;;;10.20;99.90;;;;;;5009286;28;20015;-72
2022/03/12 05:03:19;;;;;;;7.85;5.35;;;10.20;99.90;;;;;;5009351;28;20536;-72
2022/03/12 05:05:48;;;;;;;7.95;6.03;;;10.10;99.90;;;;;;5009498;28;20042;-71
2022/03/12 05:08:16;;;;;;;8.88;5.40;;;10.10;99.90;;;;;;5008895;28;20029;-72
2022/03/12 05:10:44;;;;;;;8.27;5.10;;;10.10;99.90;;;;;;5009086;28;20429;-72
2022/03/12 05:13:12;;;;;;;6.50;4.95;;;10.10;99.90;;;;;;5009029;28;20026;-71
2022/03/12 05:15:38;;;;;;;7.60;5.15;;;10.00;99.90;;;;;;5009262;28;20034;-72
2022/03/12 05:18:11;;;;;;;8.85;5.43;;;10.00;99.90;;;;;;5009185;28;20068;-72
2022/03/12 05:20:38;;;;;;;8.20;5.15;;;10.00;99.90;;;;;;5008966;28;20112;-71
2022/03/12 05:23:07;;;;;;;7.95;5.35;;;10.00;99.90;;;;;;5008774;28;20394;-71
2022/03/12 05:25:34;;;;;;;8.85;5.35;;;10.00;99.90;;;;;;5009133;28;20386;-71
2022/03/12 05:28:00;;;;;;;7.70;5.07;;;9.90;99.90;;;;;;5008901;28;20022;-71
2022/03/12 05:30:27;;;;;;;8.65;5.53;;;9.90;99.90;;;;;;5009043;28;20022;-71
2022/03/12 05:32:53;;;;;;;8.68;5.63;;;9.90;99.90;;;;;;5009171;28;20160;-72
2022/03/12 05:35:20;;;;;;;8.68;5.80;;;9.90;99.90;;;;;;5008617;28;20485;-71
2022/03/12 05:37:50;;;;;;;9.93;5.28;;;9.80;99.90;;;;;;5009299;28;20397;-71
2022/03/12 05:40:19;;;;;;;9.27;5.40;;;9.80;99.90;;;;;;5008791;28;20064;-72
2022/03/12 05:42:46;;;;;;;9.30;5.90;;;9.80;99.90;;;;;;5009105;28;20041;-72
2022/03/12 05:45:12;;;;;;;10.13;5.45;;;9.70;99.90;;;;;;5010924;28;20359;-72
2022/03/12 05:47:39;;;;;;;9.63;5.63;;;9.70;99.90;;;;;;5012814;28;20041;-72
2022/03/12 05:50:09;;;;;;;8.40;5.65;;;9.70;99.90;;;;;;5012683;28;20021;-72
2022/03/12 05:52:49;;;;;;;11.48;6.40;;;9.70;99.90;;;;;;5012867;28;20469;-72
2022/03/12 05:55:19;;;;;;;9.40;6.35;;;9.70;99.90;;;;;;5012534;28;20478;-72
2022/03/12 05:57:45;;;;;;;9.48;5.63;;;9.60;99.90;;;;;;5013071;28;20432;-72
2022/03/12 06:00:12;;;;;;;8.32;5.75;;;9.60;99.90;;;;;;4994904;28;20053;-72
2022/03/12 06:02:51;;;;;;;10.70;5.43;;;9.60;99.90;;;;;;5012557;28;20454;-72
2022/03/12 06:05:26;;;;;;;10.20;5.80;;;9.60;99.90;;;;;;5012602;28;20077;-71
2022/03/12 06:07:54;;;;;;;10.02;6.07;;;9.60;99.90;;;;;;5012553;28;20034;-71
2022/03/12 06:10:24;;;;;;;11.00;6.18;;;9.60;99.90;;;;;;5012497;28;20053;-71
2022/03/12 06:12:53;;;;;;;11.18;5.90;;;9.70;99.90;;;;;;5012245;28;20030;-71
2022/03/12 06:15:21;;;;;;;10.50;5.95;;;9.60;99.90;;;;;;4994729;28;20040;-72
2022/03/12 06:17:49;;;;;;;7.32;5.55;;;9.60;99.90;;;;;;5012252;28;20058;-72
2022/03/12 06:20:20;;;;;;;9.43;5.88;;;9.60;99.90;;;;;;5012365;28;20050;-72
2022/03/12 06:22:47;;;;;;;8.80;5.90;;;9.60;99.90;;;;;;5012006;28;20029;-71
2022/03/12 06:25:14;;;;;;;11.23;6.00;;;9.60;99.90;;;;;;5012561;28;20065;-71
2022/03/12 06:27:43;;;;;;;10.82;6.20;;;9.60;99.90;;;;;;5011258;28;20069;-71
2022/03/12 06:30:11;;;;;;;9.35;5.70;;;9.60;99.90;;;;;;5012389;28;20103;-71
2022/03/12 06:32:39;;;;;;;11.02;6.00;;;9.60;99.90;;;;;;5008801;28;20049;-71
2022/03/12 06:35:06;;;;;;;12.52;6.00;;;9.60;99.90;;;;;;5011088;28;20026;-71
2022/03/12 06:37:32;;;;;;;10.60;5.88;;;9.60;99.90;;;;;;5010457;28;20053;-72
2022/03/12 06:40:00;;;;;;;12.95;6.28;;;9.60;99.90;;;;;;5010110;28;20029;-71
2022/03/12 06:42:27;;;;;;;10.45;5.82;;;9.60;99.90;;;;;;5003889;28;20481;-71
2022/03/12 06:44:55;;;;;;;9.80;5.63;;;9.60;99.90;;;;;;4977894;28;20035;-72
2022/03/12 06:47:22;;;;;;;8.55;5.63;;;9.60;99.90;;;;;;5004450;28;20078;-72
2022/03/12 06:49:48;;;;;;;10.02;5.70;;;9.60;99.90;;;;;;5010329;28;20073;-72
2022/03/12 06:52:14;;;;;;;11.30;6.10;;;9.60;99.90;;;;;;4992723;28;20067;-72
2022/03/12 06:54:39;;;;;;;10.35;6.20;;;9.60;99.90;;;;;;4994471;28;20026;-72
2022/03/12 06:57:05;;;;;;;12.00;6.05;;;9.60;99.90;;;;;;5008449;28;20025;-72
2022/03/12 06:59:31;;;;;;;10.48;6.00;;;9.60;99.90;;;;;;5011995;28;20051;-72
2022/03/12 07:01:57;;;;;;;12.25;6.13;;;9.70;99.90;;;;;;5009852;28;20038;-71
2022/03/12 07:04:23;;;;;;;15.23;6.40;;;9.70;99.90;;;;;;5010254;28;20026;-72
2022/03/12 07:06:49;;;;;;;9.57;5.50;;;9.70;99.90;;;;;;5010937;28;20030;-72
2022/03/12 07:09:16;;;;;;;8.85;6.05;;;9.70;99.90;;;;;;4993450;28;20026;-71
2022/03/12 07:11:41;;;;;;;8.85;6.05;;;9.70;99.90;;;;;;5011310;28;20034;-72
2022/03/12 07:14:07;;;;;;;11.23;5.88;;;9.70;99.90;;;;;;5011505;28;20310;-72
2022/03/12 07:16:32;;;;;;;9.32;6.20;;;9.80;99.90;;;;;;5011314;28;20021;-71
2022/03/12 07:18:58;;;;;;;11.00;6.82;;;9.80;99.90;;;;;;5011705;28;20115;-71
2022/03/12 07:21:24;;;;;;;10.18;6.70;;;9.80;99.90;;;;;;4992261;28;20034;-71
2022/03/12 07:23:50;;;;;;;10.63;6.13;;;9.90;99.90;;;;;;5010448;28;20037;-71
2022/03/12 07:26:15;;;;;;;10.45;6.43;;;9.90;99.90;;;;;;5010784;28;20032;-71
2022/03/12 07:28:41;;;;;;;11.13;6.25;;;9.90;99.90;;;;;;5010593;28;20025;-71
2022/03/12 07:31:07;;;;;;;12.90;6.93;;;9.90;99.90;;;;;;5010928;28;20029;-71
2022/03/12 07:33:33;;;;;;;10.80;6.28;;;9.90;99.90;;;;;;4993059;28;20509;-71
2022/03/12 07:35:59;;;;;;;14.27;6.53;;;10.00;99.90;;;;;;5010596;28;20112;-71
2022/03/12 07:38:24;;;;;;;12.68;6.30;;;10.00;99.90;;;;;;5009388;28;20021;-71
2022/03/12 07:40:50;;;;;;;9.93;6.45;;;10.00;99.90;;;;;;5010306;28;20050;-71
2022/03/12 07:43:16;;;;;;;10.52;6.55;;;10.00;99.90;;;;;;5010701;28;20115;-71
2022/03/12 07:45:41;;;;;;;13.27;6.70;;;10.10;99.90;;;;;;5010927;28;20109;-71
2022/03/12 07:48:07;;;;;;;11.48;6.38;;;10.10;99.90;;;;;;5010543;28;20486;-71
2022/03/12 07:50:34;;;;;;;11.85;6.63;;;10.10;99.90;;;;;;5010494;28;20049;-71
2022/03/12 07:52:59;;;;;;;10.68;5.95;;;10.10;99.90;;;;;;4992864;28;20042;-70
2022/03/12 07:55:25;;;;;;;11.45;6.50;;;10.20;99.90;;;;;;4992600;28;20032;-71
2022/03/12 07:57:51;;;;;;;9.38;5.97;;;10.30;99.90;;;;;;5010406;28;20057;-70
2022/03/12 08:00:17;;;;;;;13.38;6.63;;;10.20;99.90;;;;;;5010361;28;20182;-72
2022/03/12 08:02:47;;;;;;;11.75;6.68;;;10.30;99.90;;;;;;4959733;28;20022;-73
2022/03/12 08:05:13;;;;;;;13.48;6.30;;;10.30;99.90;;;;;;5006447;28;20037;-70
2022/03/12 08:07:39;;;;;;;12.93;5.68;;;10.40;99.90;;;;;;5001799;28;20377;-70
2022/03/12 08:10:07;;;;;;;13.10;5.72;;;10.50;99.90;;;;;;4972532;28;20490;-70
2022/03/12 08:12:35;;;;;;;10.23;5.35;;;10.50;99.90;;;;;;4990291;28;20121;-71
2022/03/12 08:15:05;;;;;;;9.95;5.43;;;10.50;99.90;;;;;;4990688;28;20022;-70
2022/03/12 08:17:31;;;;;;;12.13;5.10;;;10.60;99.90;;;;;;4993474;28;20042;-71
2022/03/12 08:19:56;;;;;;;9.13;4.82;;;10.60;99.90;;;;;;5008729;28;20101;-71
2022/03/12 08:22:22;;;;;;;12.50;5.10;;;10.70;99.90;;;;;;4987672;28;20026;-71
2022/03/12 08:24:49;;;;;;;11.63;4.90;;;10.70;99.90;;;;;;5008246;28;20480;-71
2022/03/12 08:27:15;;;;;;;11.55;5.22;;;10.80;99.90;;;;;;5008755;28;20350;-71
2022/03/12 08:29:44;;;;;;;12.52;5.38;;;10.90;99.90;;;;;;5009934;28;20108;-71
2022/03/12 08:32:10;;;;;;;12.10;5.13;;;11.00;99.90;;;;;;4993023;28;20119;-72
2022/03/12 08:34:36;;;;;;;10.13;4.68;;;11.00;99.90;;;;;;4990345;28;20076;-71
2022/03/12 08:37:03;;;;;;;10.38;4.97;;;11.10;99.90;;;;;;4990184;28;20094;-72
2022/03/12 08:39:28;;;;;;;10.05;4.55;;;11.10;99.90;;;;;;4990344;28;20027;-71
2022/03/12 08:41:54;;;;;;;9.10;4.75;;;11.20;99.90;;;;;;4990343;28;20042;-71
2022/03/12 08:44:21;;;;;;;9.45;4.55;;;11.30;99.90;;;;;;4971941;28;20065;-71
2022/03/12 08:46:47;;;;;;;9.05;4.50;;;11.40;99.90;;;;;;4989968;28;20343;-72
2022/03/12 08:49:13;;;;;;;9.10;4.68;;;11.50;99.90;;;;;;4989697;28;20105;-71
2022/03/12 08:51:41;;;;;;;10.43;4.80;;;11.60;99.90;;;;;;4972242;28;20034;-72
2022/03/12 08:54:07;;;;;;;12.73;4.72;;;11.60;99.90;;;;;;4989862;28;20331;-71
2022/03/12 08:56:33;;;;;;;7.60;4.43;;;11.60;99.90;;;;;;4972817;28;20125;-71
2022/03/12 08:58:58;;;;;;;8.25;4.65;;;11.60;99.90;;;;;;4989704;28;20397;-72
2022/03/12 09:01:25;;;;;;;19.52;5.57;;;11.60;99.90;;;;;;4989552;28;20022;-71
2022/03/12 09:03:51;;;;;;;9.18;4.28;;;11.60;99.90;;;;;;4989431;28;20540;-72
2022/03/12 09:06:17;;;;;;;10.50;4.57;;;11.50;99.90;;;;;;4989977;28;20030;-71
2022/03/12 09:08:46;;;;;;;10.20;4.47;;;11.50;99.90;;;;;;4989461;28;20109;-72
2022/03/12 09:11:14;;;;;;;9.20;4.28;;;11.50;99.90;;;;;;4989575;28;20022;-72
2022/03/12 09:13:40;;;;;;;9.85;4.10;;;11.50;99.90;;;;;;4989849;28;20027;-71
2022/03/12 09:16:05;;;;;;;7.60;3.65;;;11.50;99.90;;;;;;4971912;28;20464;-72
2022/03/12 09:18:31;;;;;;;10.45;3.60;;;11.50;99.90;;;;;;4988928;28;20129;-71
2022/03/12 09:20:56;;;;;;;8.35;2.97;;;11.50;99.90;;;;;;4989307;28;20031;-71
2022/03/12 09:23:22;;;;;;;8.75;2.97;;;11.60;99.90;;;;;;4989471;28;20062;-71
2022/03/12 09:25:49;;;;;;;10.02;3.13;;;11.50;99.90;;;;;;4971775;28;20026;-72
2022/03/12 09:28:16;;;;;;;9.10;3.20;;;11.50;99.90;;;;;;4989558;28;20084;-71
2022/03/12 09:30:42;;;;;;;10.13;2.83;;;11.60;99.90;;;;;;4989375;28;20029;-71
2022/03/12 09:33:09;;;;;;;10.02;3.40;;;11.60;99.90;;;;;;4989316;28;20034;-71
2022/03/12 09:35:35;;;;;;;6.57;2.95;;;11.60;99.90;;;;;;4989517;28;20015;-72
2022/03/12 09:38:02;;;;;;;8.10;3.10;;;11.70;99.90;;;;;;4989458;28;20033;-72
2022/03/12 09:40:29;;;;;;;8.27;2.83;;;11.80;99.90;;;;;;4989487;28;20034;-71
2022/03/12 09:42:55;;;;;;;8.70;3.42;;;11.90;99.90;;;;;;4989276;28;20394;-71
2022/03/12 09:45:22;;;;;;;6.90;3.00;;;12.00;99.90;;;;;;4971576;28;20032;-72
2022/03/12 09:47:48;;;;;;;9.02;2.95;;;12.10;99.90;;;;;;4989150;28;20084;-72
2022/03/12 09:50:14;;;;;;;9.73;2.85;;;12.20;99.90;;;;;;4989096;28;20026;-71
2022/03/12 09:52:41;;;;;;;7.10;3.05;;;12.30;99.90;;;;;;4989213;28;20023;-72
2022/03/12 09:55:07;;;;;;;8.82;3.17;;;12.30;99.90;;;;;;4989356;28;20023;-71
2022/03/12 09:57:34;;;;;;;7.70;3.10;;;12.30;99.90;;;;;;4971744;28;20034;-71
2022/03/12 10:00:00;;;;;;;7.28;3.58;;;12.20;99.90;;;;;;4989504;28;20518;-72
2022/03/12 10:02:26;;;;;;;11.15;3.25;;;12.30;99.90;;;;;;4989270;28;20496;-73
2022/03/12 10:04:53;;;;;;;6.07;3.28;;;12.30;99.90;;;;;;4989009;28;20022;-72
2022/03/12 10:07:19;;;;;;;8.63;3.40;;;12.30;99.90;;;;;;4989287;28;20031;-72
2022/03/12 10:09:44;;;;;;;10.73;3.90;;;12.30;99.90;;;;;;4988947;28;20441;-72
2022/03/12 10:12:10;;;;;;;7.93;3.33;;;12.30;99.90;;;;;;4989031;28;20105;-72
2022/03/12 10:14:35;;;;;;;9.27;2.92;;;12.20;99.90;;;;;;4988730;28;20027;-73
2022/03/12 10:17:02;;;;;;;11.80;3.20;;;12.20;99.90;;;;;;4989002;28;20047;-72
2022/03/12 10:19:30;;;;;;;10.23;3.35;;;12.10;99.90;;;;;;4989034;28;20441;-71
2022/03/12 10:21:56;;;;;;;8.13;3.42;;;12.00;99.90;;;;;;4988914;28;20057;-71
2022/03/12 10:24:24;;;;;;;7.00;3.42;;;12.00;99.90;;;;;;4988870;28;20034;-71
2022/03/12 10:26:50;;;;;;;8.40;3.15;;;12.10;99.90;;;;;;4989199;28;20034;-71
2022/03/12 10:29:16;;;;;;;9.43;3.40;;;12.20;99.90;;;;;;4988492;28;20100;-72
2022/03/12 10:31:41;;;;;;;8.82;3.08;;;12.30;99.90;;;;;;4989896;28;20312;-72
2022/03/12 10:34:14;;;;;;;9.13;3.13;;;12.50;99.90;;;;;;4992512;28;20625;-71
2022/03/12 10:36:40;;;;;;;11.13;3.05;;;12.60;99.90;;;;;;4992124;28;20420;-71
2022/03/12 10:39:05;;;;;;;10.43;2.85;;;12.70;99.90;;;;;;5004864;28;20026;-71
2022/03/12 10:41:31;;;;;;;10.68;3.13;;;12.80;99.90;;;;;;5004378;28;20049;-71
2022/03/12 10:43:58;;;;;;;7.68;2.83;;;12.80;99.90;;;;;;5007963;28;20052;-71
2022/03/12 10:46:27;;;;;;;9.57;2.85;;;12.80;99.90;;;;;;5006684;28;20015;-71
2022/03/12 10:48:56;;;;;;;6.80;2.97;;;12.90;99.90;;;;;;5007192;28;20037;-72
2022/03/12 10:51:38;;;;;;;10.00;3.20;;;13.10;99.90;;;;;;5006483;28;20121;-73
2022/03/12 10:54:15;;;;;;;8.02;2.90;;;13.20;99.90;;;;;;5005327;28;20422;-72
2022/03/12 10:56:42;;;;;;;6.22;2.83;;;13.30;99.90;;;;;;5007453;28;20029;-72
2022/03/12 10:59:17;;;;;;;9.02;3.05;;;13.40;99.90;;;;;;4982099;28;20027;-72
2022/03/12 11:01:47;;;;;;;8.48;2.70;;;13.50;99.90;;;;;;5009492;28;20053;-72
2022/03/12 11:04:29;;;;;;;10.38;3.10;;;13.60;99.90;;;;;;5010253;28;20482;-72
2022/03/12 11:06:57;;;;;;;9.13;2.55;;;13.60;99.90;;;;;;5000938;28;20025;-72
2022/03/12 11:09:41;;;;;;;5.65;2.35;;;13.80;99.90;;;;;;4976609;28;20188;-72
2022/03/12 11:12:35;;;;;;;8.13;2.70;;;13.90;99.90;;;;;;4987426;28;20179;-72
2022/03/12 11:15:10;;;;;;;8.02;2.70;;;13.90;99.90;;;;;;4982380;28;20030;-74
2022/03/12 11:17:49;;;;;;;6.97;2.97;;;14.00;99.90;;;;;;5011178;28;20084;-74
2022/03/12 11:20:28;;;;;;;11.77;3.00;;;13.90;99.90;;;;;;5011127;28;20026;-74
2022/03/12 11:23:12;;;;;;;8.10;3.13;;;14.00;99.90;;;;;;5011377;28;20425;-73
2022/03/12 11:25:58;;;;;;;7.95;2.97;;;14.00;99.90;;;;;;5011002;28;20127;-74
2022/03/12 11:28:24;;;;;;;7.50;3.10;;;13.90;99.90;;;;;;5011136;28;20034;-74
2022/03/12 11:30:50;;;;;;;6.20;2.80;;;13.90;99.90;;;;;;5010767;28;20033;-74
2022/03/12 11:33:18;;;;;;;7.95;2.70;;;13.90;99.90;;;;;;5011035;28;20025;-73
2022/03/12 11:35:45;;;;;;;7.20;2.60;;;13.90;99.90;;;;;;5010613;28;20053;-73
2022/03/12 11:38:13;;;;;;;7.50;3.00;;;14.00;99.90;;;;;;4986562;28;20419;-72
2022/03/12 11:41:09;;;;;;;7.50;2.55;;;14.00;99.90;;;;;;5010716;28;20022;-72
2022/03/12 11:43:41;;;;;;;8.20;3.30;;;14.00;99.90;;;;;;5009251;28;20117;-72
2022/03/12 11:46:10;;;;;;;8.65;3.20;;;14.00;99.90;;;;;;5010530;28;20038;-73
2022/03/12 11:48:38;;;;;;;5.68;2.90;;;14.00;99.90;;;;;;5010687;28;20121;-72
2022/03/12 11:51:22;;;;;;;6.45;2.90;;;14.00;99.90;;;;;;5010359;28;20092;-71
2022/03/12 11:53:48;;;;;;;8.13;2.92;;;14.10;99.90;;;;;;5010405;28;20088;-73
2022/03/12 11:56:15;;;;;;;9.57;3.25;;;14.10;99.90;;;;;;5010271;28;20022;-73
2022/03/12 11:58:42;;;;;;;9.73;3.30;;;14.20;99.90;;;;;;5010403;28;20390;-71
2022/03/12 12:01:11;;;;;;;5.35;2.58;;;14.30;99.90;;;;;;5000992;28;20030;-73
2022/03/12 12:03:37;;;;;;;5.43;2.70;;;14.50;99.90;;;;;;4989524;28;20018;-73
2022/03/12 12:06:03;;;;;;;8.10;3.13;;;14.70;99.90;;;;;;5011038;28;20044;-73
2022/03/12 12:08:28;;;;;;;5.22;2.53;;;14.80;99.90;;;;;;5012258;28;20025;-72
2022/03/12 12:10:54;;;;;;;4.95;2.58;;;14.90;99.90;;;;;;5012073;28;20033;-73
2022/03/12 12:13:21;;;;;;;8.45;2.67;;;15.00;99.90;;;;;;4994895;28;20033;-72
2022/03/12 12:15:47;;;;;;;5.68;2.33;;;15.00;99.90;;;;;;5012852;28;20034;-72
2022/03/12 12:18:13;;;;;;;9.85;2.50;;;15.10;99.90;;;;;;5012770;28;20069;-71
2022/03/12 12:20:42;;;;;;;8.00;2.60;;;15.10;99.90;;;;;;5005972;28;20029;-72
2022/03/12 12:23:17;;;;;;;5.20;2.50;;;15.20;99.90;;;;;;4992787;28;20061;-73
2022/03/12 12:25:43;;;;;;;5.50;2.55;;;15.30;99.90;;;;;;5013394;28;20061;-73
2022/03/12 12:28:17;;;;;;;7.10;2.70;;;15.40;99.90;;;;;;4993985;28;20088;-72
2022/03/12 12:30:46;;;;;;;7.07;2.60;;;15.30;99.90;;;;;;5007013;28;20253;-72
2022/03/12 12:33:29;;;;;;;7.35;2.58;;;15.30;99.90;;;;;;4994368;28;20260;-72
2022/03/12 12:36:33;;;;;;;5.18;2.35;;;15.30;99.60;;;;;;4984461;28;20041;-71
2022/03/12 12:39:10;;;;;;;7.60;2.25;;;15.40;99.00;;;;;;4907388;29;20029;-71
2022/03/12 12:41:57;;;;;;;7.75;2.33;;;15.40;98.50;;;;;;4911631;29;20220;-71
2022/03/12 12:44:42;;;;;;;5.05;2.33;;;15.40;97.10;;;;;;4907519;29;20653;-71